Time;durP1;ratioP1;P1;durP2;ratioP2;P2;SDS_P1;SDS_P2;PMS_P1;PMS_P2;Temp;Humidity;BMP_temperature;BMP_pressure;BME280_temperature;BME280_humidity;BME280_pressure;Samples;Min_cycle;Max_cycle;Signal;HPM_P1;HPM_P2
2022/07/31 00:01:30;;;;;;;9.15;5.40;;;;;;;18.46;83.25;100474.03;3663332;79;98880;-91
2022/07/31 00:06:31;;;;;;;9.83;5.30;;;;;;;18.45;83.36;100471.08;3602550;80;98691;-91
2022/07/31 00:11:32;;;;;;;15.63;5.67;;;;;;;18.44;83.44;100475.08;3589764;81;98725;-88
2022/07/31 00:16:33;;;;;;;9.15;5.15;;;;;;;18.40;83.26;100467.39;3590327;81;99025;-89
2022/07/31 00:21:34;;;;;;;10.90;4.80;;;;;;;18.41;83.38;100468.96;3580736;81;98728;-90
2022/07/31 00:26:35;;;;;;;10.78;5.92;;;;;;;18.38;83.52;100478.20;3604062;81;98245;-91
2022/07/31 00:31:37;;;;;;;8.55;5.58;;;;;;;18.36;83.59;100473.05;3588869;80;98639;-91
2022/07/31 00:36:38;;;;;;;9.15;5.17;;;;;;;18.32;83.63;100471.55;3593724;81;98590;-90
2022/07/31 00:41:43;;;;;;;7.85;5.00;;;;;;;18.29;83.86;100466.79;3587725;81;98863;-90
2022/07/31 00:46:44;;;;;;;9.53;5.08;;;;;;;18.28;83.81;100466.02;3594954;81;98824;-90
2022/07/31 00:51:45;;;;;;;11.38;5.75;;;;;;;18.28;83.99;100461.84;3488621;83;99111;-90
2022/07/31 00:56:46;;;;;;;10.43;5.22;;;;;;;18.26;83.91;100469.82;3579304;81;99399;-90
2022/07/31 01:01:47;;;;;;;9.95;5.25;;;;;;;18.24;83.94;100468.67;3580911;81;99050;-90
2022/07/31 01:06:48;;;;;;;8.48;5.62;;;;;;;18.23;83.98;100472.68;3569462;79;98654;-90
2022/07/31 01:12:13;;;;;;;10.53;5.05;;;;;;;18.20;84.21;100465.97;3588900;81;98770;-90
2022/07/31 01:17:17;;;;;;;7.95;5.22;;;;;;;18.20;84.08;100465.20;3583059;81;99090;-91
2022/07/31 01:22:50;;;;;;;8.40;5.15;;;;;;;18.18;84.25;100460.64;3584335;81;98914;-91
2022/07/31 01:27:57;;;;;;;8.68;5.03;;;;;;;18.15;84.31;100456.70;3582339;81;98941;-90
2022/07/31 01:33:03;;;;;;;10.18;4.90;;;;;;;18.15;84.26;100455.94;3575771;80;99190;-91
2022/07/31 01:38:12;;;;;;;9.23;5.60;;;;;;;18.10;84.39;100451.63;3596726;81;33511;-90
2022/07/31 01:43:24;;;;;;;8.45;5.00;;;;;;;18.08;84.52;100449.89;3591320;81;98722;-90
2022/07/31 01:48:26;;;;;;;9.65;4.85;;;;;;;18.07;84.53;100448.31;3583945;81;98710;-90
2022/07/31 01:53:31;;;;;;;8.43;5.00;;;;;;;18.05;84.55;100442.37;3571122;81;99379;-89
2022/07/31 01:58:36;;;;;;;8.30;5.03;;;;;;;18.02;84.67;100443.84;3578771;81;98812;-90
2022/07/31 02:03:39;;;;;;;8.40;4.80;;;;;;;18.00;84.63;100440.11;3593441;79;98798;-89
2022/07/31 02:08:46;;;;;;;8.28;5.10;;;;;;;17.97;84.62;100422.05;3575140;81;98816;-89
2022/07/31 02:13:49;;;;;;;10.63;5.03;;;;;;;17.93;84.77;100424.13;3577598;80;98627;-89
2022/07/31 02:18:53;;;;;;;7.78;4.45;;;;;;;17.91;84.75;100415.41;3583704;81;99237;-89
2022/07/31 02:23:55;;;;;;;8.00;4.53;;;;;;;17.88;84.74;100406.52;3580290;81;98612;-90
2022/07/31 02:28:58;;;;;;;7.85;4.40;;;;;;;17.85;84.71;100406.77;3583067;81;98732;-89
2022/07/31 02:33:59;;;;;;;9.25;4.40;;;;;;;17.84;84.77;100400.23;3571347;81;98824;-88
2022/07/31 02:39:02;;;;;;;7.45;3.80;;;;;;;17.80;84.81;100400.89;3569325;81;98806;-89
2022/07/31 02:44:04;;;;;;;8.10;4.50;;;;;;;17.74;84.73;100393.66;3560999;81;98303;-88
2022/07/31 02:49:06;;;;;;;10.35;5.00;;;;;;;17.70;84.75;100392.13;3602203;81;98637;-89
2022/07/31 02:54:07;;;;;;;8.05;4.40;;;;;;;17.65;84.71;100389.86;3589496;81;98852;-89
2022/07/31 02:59:08;;;;;;;6.85;4.10;;;;;;;17.63;84.95;100383.91;3578897;81;99205;-88
2022/07/31 03:04:09;;;;;;;8.88;3.92;;;;;;;17.61;85.15;100382.95;3600654;80;98461;-89
2022/07/31 03:09:10;;;;;;;10.33;4.00;;;;;;;17.61;85.20;100386.35;3656053;79;98818;-89
2022/07/31 03:14:13;;;;;;;11.18;4.33;;;;;;;17.60;85.19;100386.17;3641323;79;98739;-89
2022/07/31 03:19:15;;;;;;;7.60;3.67;;;;;;;17.57;85.32;100390.59;3658345;79;98757;-90
2022/07/31 03:24:17;;;;;;;7.42;4.42;;;;;;;17.56;85.27;100386.84;3633410;79;98641;-88
2022/07/31 03:29:18;;;;;;;7.67;4.60;;;;;;;17.54;85.21;100387.25;3657106;79;98736;-89
2022/07/31 03:34:19;;;;;;;6.97;4.12;;;;;;;17.53;85.41;100383.50;3655436;79;98791;-88
2022/07/31 03:39:21;;;;;;;7.70;4.55;;;;;;;17.47;85.37;100393.55;3648837;79;98794;-89
2022/07/31 03:44:24;;;;;;;7.92;4.58;;;;;;;17.44;85.64;100391.00;3638422;80;98545;-88
2022/07/31 03:49:26;;;;;;;7.35;4.72;;;;;;;17.44;85.72;100386.83;3635888;79;97817;-89
2022/07/31 03:54:27;;;;;;;9.10;4.67;;;;;;;17.45;85.80;100384.22;3643314;79;98888;-88
2022/07/31 03:59:29;;;;;;;9.85;4.42;;;;;;;17.45;85.83;100391.18;3651575;79;98866;-89
2022/07/31 04:04:30;;;;;;;10.35;5.20;;;;;;;17.43;85.90;100393.61;3663975;79;98736;-88
2022/07/31 04:09:31;;;;;;;11.22;4.50;;;;;;;17.45;86.01;100389.02;3662347;78;98934;-89
2022/07/31 04:14:33;;;;;;;8.95;4.72;;;;;;;17.44;85.99;100388.22;3688084;78;99060;-87
2022/07/31 04:19:34;;;;;;;8.55;4.42;;;;;;;17.43;85.99;100381.09;3686934;78;32534;-87
2022/07/31 04:24:35;;;;;;;7.40;3.87;;;;;;;17.43;85.92;100388.67;3690861;78;98532;-89
2022/07/31 04:29:37;;;;;;;8.78;4.53;;;;;;;17.43;85.99;100380.33;3697638;78;97988;-88
2022/07/31 04:34:38;;;;;;;8.30;5.13;;;;;;;17.44;85.92;100383.28;3689434;78;98887;-89
2022/07/31 04:39:39;;;;;;;8.55;4.75;;;;;;;17.43;85.87;100387.28;3701699;78;99088;-89
2022/07/31 04:44:40;;;;;;;8.25;5.37;;;;;;;17.45;85.89;100390.41;3687952;78;98809;-88
2022/07/31 04:49:42;;;;;;;9.30;4.53;;;;;;;17.47;85.69;100388.78;3691212;78;30981;-88
2022/07/31 04:54:43;;;;;;;10.20;4.62;;;;;;;17.49;85.85;100388.36;3685337;78;98570;-88
2022/07/31 04:59:44;;;;;;;11.33;5.35;;;;;;;17.52;85.77;100386.11;3683967;78;99040;-87
2022/07/31 05:04:45;;;;;;;12.13;5.57;;;;;;;17.55;85.63;100385.27;3693615;78;98980;-88
2022/07/31 05:09:46;;;;;;;9.80;4.83;;;;;;;17.56;85.62;100382.04;3658236;79;99057;-88
2022/07/31 05:14:47;;;;;;;9.63;5.05;;;;;;;17.58;85.60;100385.20;3666224;79;98730;-87
2022/07/31 05:19:48;;;;;;;10.75;4.42;;;;;;;17.61;85.53;100382.17;3662882;79;98836;-88
2022/07/31 05:24:49;;;;;;;7.80;4.30;;;;;;;17.64;85.49;100381.31;3672795;79;98856;-88
2022/07/31 05:29:50;;;;;;;10.33;4.90;;;;;;;17.67;85.33;100384.05;3671988;79;98786;-89
2022/07/31 05:34:51;;;;;;;13.13;4.78;;;;;;;17.72;85.28;100382.77;3688823;79;98918;-85
2022/07/31 05:39:52;;;;;;;8.40;4.30;;;;;;;17.75;85.36;100384.09;3678383;79;98925;-88
2022/07/31 05:44:53;;;;;;;10.87;5.13;;;;;;;17.79;85.37;100392.37;3671135;79;98759;-84
2022/07/31 05:49:54;;;;;;;7.33;4.47;;;;;;;17.84;85.29;100381.54;3661649;79;99017;-87
2022/07/31 05:54:55;;;;;;;7.53;3.93;;;;;;;17.91;85.03;100386.16;3666439;79;98678;-88
2022/07/31 05:59:56;;;;;;;9.43;4.77;;;;;;;17.96;85.01;100377.31;3666652;79;98593;-88
2022/07/31 06:04:57;;;;;;;9.83;5.07;;;;;;;18.04;84.75;100382.94;3675151;78;98830;-88
2022/07/31 06:09:58;;;;;;;11.67;4.57;;;;;;;18.12;84.65;100384.36;3701617;78;98896;-87
2022/07/31 06:14:59;;;;;;;11.97;5.13;;;;;;;18.20;84.58;100389.36;3574476;81;98917;-85
2022/07/31 06:20:00;;;;;;;9.27;4.20;;;;;;;18.28;84.39;100391.39;3568814;81;98755;-88
2022/07/31 06:25:02;;;;;;;9.03;5.23;;;;;;;18.34;84.12;100395.27;3574078;81;98672;-88
2022/07/31 06:30:05;;;;;;;7.03;4.30;;;;;;;18.42;83.81;100391.91;3580247;81;98725;-85
2022/07/31 06:35:09;;;;;;;9.50;4.90;;;;;;;18.50;83.59;100392.54;3578896;79;98784;-86
2022/07/31 06:40:12;;;;;;;9.83;4.62;;;;;;;18.56;83.34;100393.00;3639229;79;98833;-86
2022/07/31 06:45:13;;;;;;;6.42;4.03;;;;;;;18.61;83.08;100398.07;3641355;80;99246;-85
2022/07/31 06:50:15;;;;;;;7.53;4.50;;;;;;;18.67;82.96;100397.73;3634834;79;98637;-86
2022/07/31 06:55:16;;;;;;;10.03;4.62;;;;;;;18.73;82.83;100404.37;3642132;79;98688;-86
2022/07/31 07:00:19;;;;;;;9.33;5.15;;;;;;;18.79;82.88;100401.23;3635524;80;98874;-87
2022/07/31 07:05:20;;;;;;;7.37;4.33;;;;;;;18.86;82.88;100405.25;3639146;79;98780;-85
2022/07/31 07:10:22;;;;;;;6.85;3.70;;;;;;;18.93;83.02;100400.13;3603604;80;98808;-81
2022/07/31 07:15:23;;;;;;;8.13;4.17;;;;;;;18.98;82.79;100400.41;3598142;80;98813;-86
2022/07/31 07:20:24;;;;;;;7.53;3.87;;;;;;;19.03;82.95;100403.28;3596769;80;99152;-87
2022/07/31 07:25:25;;;;;;;7.57;3.77;;;;;;;19.11;82.91;100392.91;3604324;80;97689;-87
2022/07/31 07:30:27;;;;;;;8.37;3.50;;;;;;;19.22;83.06;100398.25;3595074;80;98632;-86
2022/07/31 07:35:28;;;;;;;10.97;3.70;;;;;;;19.30;83.19;100401.06;3617885;80;98101;-91
2022/07/31 07:40:30;;;;;;;7.97;3.50;;;;;;;19.40;83.59;100393.80;3662324;79;98967;-89
2022/07/31 07:45:31;;;;;;;6.60;2.93;;;;;;;19.51;83.38;100398.50;3655015;79;98791;-90
2022/07/31 07:50:32;;;;;;;8.63;3.13;;;;;;;19.61;83.35;100402.27;3644504;79;98877;-88
2022/07/31 07:55:33;;;;;;;5.50;3.17;;;;;;;19.76;83.19;100404.84;3657813;79;26329;-89
2022/07/31 08:00:34;;;;;;;5.83;3.10;;;;;;;19.90;82.94;100401.05;3666268;79;98929;-90
2022/07/31 08:05:36;;;;;;;4.58;2.58;;;;;;;20.04;83.00;100402.06;3638570;79;98791;-91
2022/07/31 08:10:38;;;;;;;5.20;2.33;;;;;;;20.20;83.27;100397.05;3655432;79;98570;-85
2022/07/31 08:15:39;;;;;;;6.53;2.77;;;;;;;20.47;83.50;100394.66;3663445;79;98768;-84
2022/07/31 08:20:40;;;;;;;4.87;2.70;;;;;;;20.93;83.38;100397.64;3654776;79;98839;-86
2022/07/31 08:25:41;;;;;;;8.43;3.25;;;;;;;21.60;82.21;100401.84;3668152;79;25839;-82
2022/07/31 08:30:42;;;;;;;5.03;2.72;;;;;;;22.31;81.99;100401.50;3660015;79;98729;-81
2022/07/31 08:35:43;;;;;;;5.42;2.45;;;;;;;23.82;78.30;100380.11;3665260;79;98791;-82
2022/07/31 08:40:45;;;;;;;7.65;2.33;;;;;;;23.82;78.30;100380.11;3656076;79;98843;-82
2022/07/31 08:45:49;;;;;;;5.15;2.42;;;;;;;24.95;75.94;100399.04;3659938;79;99136;-84
2022/07/31 08:50:51;;;;;;;6.72;2.05;;;;;;;25.78;73.72;100387.61;3650522;79;99244;-85
2022/07/31 08:55:54;;;;;;;6.62;2.05;;;;;;;26.59;70.40;100386.91;3666034;79;25904;-84
2022/07/31 09:00:56;;;;;;;4.35;1.98;;;;;;;27.52;68.56;100396.75;3654798;79;99078;-87
2022/07/31 09:05:57;;;;;;;5.85;2.22;;;;;;;28.45;66.25;100387.23;3652654;79;98713;-90
2022/07/31 09:11:04;;;;;;;6.00;1.92;;;;;;;29.25;62.79;100385.47;3654934;78;98827;-86
2022/07/31 09:16:06;;;;;;;3.72;1.67;;;;;;;29.77;59.81;100381.90;3668309;79;98778;-87
2022/07/31 09:21:07;;;;;;;4.15;1.90;;;;;;;30.34;58.74;100388.02;3652883;79;98834;-86
2022/07/31 09:26:08;;;;;;;4.53;1.77;;;;;;;30.82;56.53;100380.73;3670746;79;26054;-86
2022/07/31 09:31:11;;;;;;;4.28;1.75;;;;;;;31.69;54.25;100385.50;3658444;79;98578;-84
2022/07/31 09:36:13;;;;;;;3.30;1.57;;;;;;;32.36;52.18;100371.09;3662755;79;98587;-88
2022/07/31 09:41:20;;;;;;;4.70;1.80;;;;;;;32.84;50.59;100370.48;3644119;79;99139;-86
2022/07/31 09:46:21;;;;;;;6.10;1.75;;;;;;;33.46;48.84;100365.09;3654924;79;98790;-85
2022/07/31 09:51:22;;;;;;;3.62;1.57;;;;;;;33.94;46.58;100354.38;3644069;79;98992;-85
2022/07/31 09:56:34;;;;;;;3.67;1.67;;;;;;;34.14;46.28;100358.77;3658331;79;25952;-87
2022/07/31 10:01:36;;;;;;;3.35;1.30;;;;;;;34.07;44.82;100356.55;3646698;79;98933;-85
2022/07/31 10:06:39;;;;;;;3.22;1.70;;;;;;;34.31;43.79;100349.32;3638962;79;98675;-83
2022/07/31 10:11:41;;;;;;;3.60;2.03;;;;;;;34.94;42.57;100344.41;3660173;79;98868;-82
2022/07/31 10:16:44;;;;;;;2.25;1.20;;;;;;;35.45;41.47;100345.01;3662428;79;98793;-90
2022/07/31 10:21:54;;;;;;;3.37;1.60;;;;;;;35.29;38.55;100338.30;3660518;79;121975;-85
2022/07/31 10:26:57;;;;;;;2.75;1.42;;;;;;;34.73;39.26;100334.88;3660457;79;98993;-89
2022/07/31 10:31:59;;;;;;;2.70;1.20;;;;;;;35.35;38.46;100330.38;3655771;79;98522;-88
2022/07/31 10:37:18;;;;;;;4.22;1.10;;;;;;;35.76;37.11;100325.52;3664765;79;98680;-89
2022/07/31 10:42:53;;;;;;;3.70;1.30;;;;;;;36.05;36.13;100322.25;3643409;79;98680;-92
2022/07/31 10:47:58;;;;;;;2.87;1.22;;;;;;;36.36;35.74;100323.38;3661978;79;98818;-90
2022/07/31 10:53:17;;;;;;;5.03;1.00;;;;;;;36.57;35.05;100321.30;3658084;79;98884;-84
2022/07/31 10:58:21;;;;;;;4.37;1.17;;;;;;;36.67;33.71;100325.24;3675760;79;98930;-82
2022/07/31 11:03:22;;;;;;;3.52;1.42;;;;;;;36.11;33.36;100317.81;3640165;79;98857;-83
2022/07/31 11:08:24;;;;;;;5.08;1.40;;;;;;;35.69;30.96;100307.56;3617550;79;25993;-81
2022/07/31 11:13:25;;;;;;;4.03;1.27;;;;;;;35.66;33.81;100305.79;3594652;80;98401;-84
2022/07/31 11:18:26;;;;;;;5.37;1.30;;;;;;;36.26;32.22;100302.25;3568177;81;97915;-85
2022/07/31 11:23:30;;;;;;;2.98;1.50;;;;;;;36.72;32.67;100310.74;3545335;82;99202;-82
2022/07/31 11:28:33;;;;;;;2.12;1.35;;;;;;;36.60;31.09;100302.30;3547945;81;99163;-80
2022/07/31 11:33:42;;;;;;;3.75;1.40;;;;;;;35.33;31.73;100292.95;3568446;81;98762;-81
2022/07/31 11:38:48;;;;;;;2.25;1.00;;;;;;;34.63;31.58;100296.58;3561048;82;102747;-83
2022/07/31 11:43:51;;;;;;;2.10;1.00;;;;;;;34.38;31.71;100297.28;3542256;81;98589;-84
2022/07/31 11:48:54;;;;;;;3.20;1.10;;;;;;;33.47;31.12;100287.52;3560673;81;98602;-85
2022/07/31 11:53:55;;;;;;;3.02;1.20;;;;;;;32.99;30.43;100291.80;3535793;82;99028;-84
2022/07/31 11:58:57;;;;;;;4.28;1.40;;;;;;;32.71;32.27;100290.50;3547520;81;99173;-87
2022/07/31 12:04:00;;;;;;;3.72;1.35;;;;;;;32.74;33.04;100284.50;3515001;81;99246;-90
2022/07/31 12:09:01;;;;;;;3.07;1.30;;;;;;;32.60;32.64;100283.48;3493403;81;99434;-85
2022/07/31 12:14:03;;;;;;;2.50;1.22;;;;;;;32.50;33.34;100280.20;3519339;81;98254;-85
2022/07/31 12:19:04;;;;;;;3.72;1.07;;;;;;;32.69;33.40;100275.34;3537621;81;98677;-80
2022/07/31 12:24:13;;;;;;;4.08;1.27;;;;;;;32.69;33.64;100278.20;3543821;81;98669;-89
2022/07/31 12:29:14;;;;;;;2.67;1.12;;;;;;;32.70;32.71;100275.47;3529276;81;98901;-83
2022/07/31 12:34:33;;;;;;;4.37;1.05;;;;;;;32.63;32.09;100273.20;3540605;81;99334;-83
2022/07/31 12:39:43;;;;;;;4.87;1.27;;;;;;;32.44;32.49;100273.78;3550756;81;99200;-82
2022/07/31 12:44:49;;;;;;;1.47;1.10;;;;;;;32.22;32.48;100276.79;3525122;81;98777;-82
2022/07/31 12:49:51;;;;;;;2.17;1.10;;;;;;;32.18;32.27;100266.97;3536781;82;98786;-87
2022/07/31 12:54:53;;;;;;;4.53;1.07;;;;;;;31.78;31.82;100272.82;3517296;81;97816;-83
2022/07/31 12:59:54;;;;;;;3.83;1.30;;;;;;;31.73;32.47;100263.66;3509127;82;98821;-81
2022/07/31 13:04:54;;;;;;;5.87;1.00;;;;;;;31.70;32.23;100256.14;3508384;82;98777;-80
2022/07/31 13:09:55;;;;;;;3.30;1.10;;;;;;;32.03;33.24;100249.50;3618595;79;98783;-83
2022/07/31 13:14:56;;;;;;;6.50;1.40;;;;;;;32.21;32.46;100249.59;3578361;81;98795;-88
2022/07/31 13:19:58;;;;;;;2.72;1.10;;;;;;;33.04;33.02;100241.71;3577775;81;98781;-81
2022/07/31 13:24:59;;;;;;;3.50;1.37;;;;;;;33.35;31.36;100236.16;3581634;81;98664;-91
2022/07/31 13:30:00;;;;;;;5.47;1.07;;;;;;;33.69;32.24;100237.27;3581999;81;99042;-82
2022/07/31 13:35:02;;;;;;;4.00;1.20;;;;;;;33.68;31.91;100231.41;3580223;81;98844;-81
2022/07/31 13:40:04;;;;;;;3.95;1.17;;;;;;;33.97;32.77;100225.44;3573702;81;98874;-82
2022/07/31 13:45:06;;;;;;;3.17;1.10;;;;;;;34.32;32.21;100215.91;3576384;81;98764;-83
2022/07/31 13:50:07;;;;;;;3.58;1.20;;;;;;;34.23;31.68;100220.59;3582335;81;98571;-81
2022/07/31 13:55:09;;;;;;;3.15;1.17;;;;;;;34.16;31.67;100216.93;3584906;81;98748;-82
2022/07/31 14:00:11;;;;;;;3.30;1.10;;;;;;;33.94;31.98;100219.40;3578769;81;98626;-82
2022/07/31 14:05:12;;;;;;;2.90;0.98;;;;;;;33.72;32.18;100209.04;3583890;81;98751;-82
2022/07/31 14:10:14;;;;;;;1.80;1.10;;;;;;;33.69;30.78;100203.64;3624385;79;99222;-88
2022/07/31 14:15:17;;;;;;;3.98;1.10;;;;;;;33.53;31.70;100207.52;3660380;79;99163;-83
2022/07/31 14:20:19;;;;;;;1.95;1.00;;;;;;;33.59;32.33;100201.84;3636886;79;98452;-85
2022/07/31 14:25:20;;;;;;;3.67;1.27;;;;;;;33.30;31.08;100194.20;3678517;79;98684;-82
2022/07/31 14:30:21;;;;;;;4.35;1.37;;;;;;;33.09;31.77;100189.53;3656737;79;99232;-81
2022/07/31 14:35:22;;;;;;;1.47;1.10;;;;;;;33.27;30.64;100171.02;3664602;79;98751;-83
2022/07/31 14:40:23;;;;;;;1.80;0.90;;;;;;;33.24;32.30;100169.23;3646892;79;98818;-81
2022/07/31 14:45:24;;;;;;;1.87;0.98;;;;;;;33.12;32.06;100169.27;3652085;79;98752;-86
2022/07/31 14:50:25;;;;;;;1.45;0.88;;;;;;;32.60;30.49;100175.97;3655271;79;99257;-85
2022/07/31 14:55:27;;;;;;;3.37;1.20;;;;;;;32.32;30.95;100174.03;3664891;79;98420;-84
2022/07/31 15:00:29;;;;;;;2.00;1.15;;;;;;;32.18;30.49;100166.64;3657955;79;99013;-84
2022/07/31 15:05:30;;;;;;;3.62;1.07;;;;;;;31.77;30.80;100169.45;3556126;82;98883;-86
2022/07/31 15:10:31;;;;;;;1.98;1.12;;;;;;;31.33;30.49;100171.14;3543369;82;98777;-91
2022/07/31 15:15:32;;;;;;;3.40;1.40;;;;;;;31.06;32.13;100177.05;3668607;79;98811;-86
2022/07/31 15:20:35;;;;;;;2.70;1.17;;;;;;;31.11;32.17;100164.12;3666953;79;98514;-86
2022/07/31 15:25:36;;;;;;;3.30;1.25;;;;;;;31.00;32.17;100163.50;3674487;79;25968;-86
2022/07/31 15:30:38;;;;;;;2.30;1.00;;;;;;;30.68;32.72;100158.06;3650656;79;98580;-85
2022/07/31 15:35:38;;;;;;;2.72;1.00;;;;;;;30.74;32.10;100163.75;3663286;79;99241;-87
2022/07/31 15:40:40;;;;;;;2.30;0.98;;;;;;;30.56;32.84;100165.05;3648275;80;99249;-84
2022/07/31 15:45:41;;;;;;;2.83;1.10;;;;;;;30.40;32.88;100167.28;3642619;79;98733;-84
2022/07/31 15:50:42;;;;;;;1.57;1.10;;;;;;;30.08;32.69;100164.58;3629380;79;98900;-82
2022/07/31 15:55:44;;;;;;;2.62;0.93;;;;;;;29.95;33.91;100150.14;3630532;79;26374;-87
2022/07/31 16:00:45;;;;;;;1.27;0.82;;;;;;;29.68;32.38;100155.80;3633691;78;99010;-84
2022/07/31 16:05:46;;;;;;;1.47;0.90;;;;;;;29.43;34.24;100154.70;3644540;79;98909;-84
2022/07/31 16:10:47;;;;;;;3.17;1.00;;;;;;;29.22;34.60;100157.64;3673165;78;98816;-84
2022/07/31 16:15:49;;;;;;;2.33;1.00;;;;;;;29.02;34.43;100158.45;3700523;78;98799;-84
2022/07/31 16:20:49;;;;;;;2.27;0.93;;;;;;;28.86;35.18;100156.29;3690454;78;98781;-83
2022/07/31 16:25:51;;;;;;;5.65;1.30;;;;;;;28.58;35.12;100150.50;3697402;78;26437;-83
2022/07/31 16:30:52;;;;;;;2.75;1.20;;;;;;;28.39;36.10;100155.67;3686327;79;99184;-83
2022/07/31 16:35:54;;;;;;;2.95;1.20;;;;;;;28.27;35.85;100156.85;3693426;78;98833;-83
2022/07/31 16:40:55;;;;;;;8.00;1.60;;;;;;;27.95;36.81;100153.91;3690530;78;99222;-84
2022/07/31 16:45:56;;;;;;;3.35;1.30;;;;;;;27.63;36.17;100146.65;3696227;78;99194;-86
2022/07/31 16:50:57;;;;;;;3.85;1.27;;;;;;;27.24;35.40;100153.97;3685198;78;98898;-84
2022/07/31 16:55:58;;;;;;;4.08;1.10;;;;;;;27.01;36.56;100171.26;3701301;78;25986;-84
2022/07/31 17:01:02;;;;;;;3.45;1.25;;;;;;;26.72;36.19;100164.34;3686489;78;98728;-83
2022/07/31 17:06:03;;;;;;;4.17;1.17;;;;;;;26.52;36.86;100155.82;3700963;78;98724;-84
2022/07/31 17:11:04;;;;;;;2.75;1.30;;;;;;;26.37;37.18;100155.73;3688986;78;98748;-82
2022/07/31 17:16:05;;;;;;;3.33;1.30;;;;;;;26.24;37.10;100158.87;3692553;78;98890;-82
2022/07/31 17:21:07;;;;;;;1.82;0.98;;;;;;;26.07;37.26;100161.29;3691130;78;98711;-82
2022/07/31 17:26:09;;;;;;;1.82;1.10;;;;;;;25.87;37.40;100159.15;3697194;78;25990;-82
2022/07/31 17:31:10;;;;;;;4.30;1.30;;;;;;;25.73;37.87;100159.92;3686762;78;99157;-82
2022/07/31 17:36:11;;;;;;;6.25;1.85;;;;;;;25.62;38.66;100159.72;3686229;78;98600;-82
2022/07/31 17:41:12;;;;;;;3.77;1.22;;;;;;;25.50;38.42;100164.27;3670101;78;98834;-82
2022/07/31 17:46:13;;;;;;;5.30;1.40;;;;;;;25.31;38.49;100162.25;3679785;78;98776;-82
2022/07/31 17:51:14;;;;;;;5.70;1.55;;;;;;;25.16;38.66;100169.06;3668697;78;99089;-82
2022/07/31 17:56:15;;;;;;;1.85;1.05;;;;;;;25.07;39.12;100171.33;3669531;78;26429;-81
2022/07/31 18:01:18;;;;;;;3.25;1.40;;;;;;;24.97;39.40;100168.47;3689418;80;98840;-81
2022/07/31 18:06:19;;;;;;;4.42;1.17;;;;;;;24.87;40.18;100176.03;3689318;78;98594;-82
2022/07/31 18:11:21;;;;;;;3.15;1.20;;;;;;;24.73;40.61;100183.81;3663693;78;98786;-83
2022/07/31 18:16:23;;;;;;;2.37;1.10;;;;;;;24.62;41.20;100182.92;3668896;79;98716;-83
2022/07/31 18:21:24;;;;;;;2.35;1.00;;;;;;;24.49;41.58;100185.78;3631700;79;99116;-83
2022/07/31 18:26:26;;;;;;;4.10;1.62;;;;;;;24.37;42.15;100191.80;3658290;79;25986;-84
2022/07/31 18:31:27;;;;;;;3.00;1.32;;;;;;;24.23;42.42;100191.69;3654641;79;98578;-86
2022/07/31 18:36:29;;;;;;;4.23;1.50;;;;;;;24.12;43.35;100192.20;3666146;79;98567;-86
2022/07/31 18:41:33;;;;;;;3.40;1.57;;;;;;;24.02;44.19;100193.49;3657761;79;98823;-85
2022/07/31 18:46:34;;;;;;;2.58;1.55;;;;;;;23.88;45.04;100200.38;3659471;79;98932;-85
2022/07/31 18:51:36;;;;;;;3.65;1.55;;;;;;;23.71;45.43;100203.39;3647149;79;99143;-87
2022/07/31 18:56:37;;;;;;;3.58;1.50;;;;;;;23.58;46.54;100208.39;3661078;79;26298;-85
2022/07/31 19:01:38;;;;;;;4.33;1.50;;;;;;;23.43;47.36;100213.12;3663368;79;98885;-84
2022/07/31 19:06:39;;;;;;;4.14;1.40;;;;;;;23.29;48.01;100215.92;3660792;79;98675;-86
2022/07/31 19:11:42;;;;;;;3.98;1.72;;;;;;;23.15;48.81;100226.97;3665422;78;98898;-86
2022/07/31 19:16:43;;;;;;;2.12;1.30;;;;;;;22.99;49.60;100232.88;3667853;79;98838;-86
2022/07/31 19:21:44;;;;;;;4.17;1.50;;;;;;;22.83;50.28;100238.78;3653515;79;98858;-86
2022/07/31 19:26:45;;;;;;;3.67;1.47;;;;;;;22.66;50.96;100245.27;3664020;79;98733;-86
2022/07/31 19:31:47;;;;;;;6.75;1.87;;;;;;;22.52;51.71;100253.48;3652094;79;98887;-86
2022/07/31 19:36:48;;;;;;;3.20;1.67;;;;;;;22.37;52.30;100252.45;3666691;79;98642;-87
2022/07/31 19:41:49;;;;;;;4.97;1.60;;;;;;;22.22;52.75;100251.44;3659529;79;98592;-86
2022/07/31 19:46:50;;;;;;;4.57;2.00;;;;;;;22.03;51.57;100261.80;3657100;79;98835;-86
2022/07/31 19:51:51;;;;;;;4.57;1.90;;;;;;;21.81;52.11;100259.64;3662725;79;98838;-85
2022/07/31 19:56:55;;;;;;;5.47;2.30;;;;;;;21.69;52.22;100262.50;3667590;79;98680;-86
2022/07/31 20:02:00;;;;;;;6.17;3.05;;;;;;;21.48;52.28;100264.64;3665111;79;98530;-85
2022/07/31 20:07:01;;;;;;;11.77;5.80;;;;;;;21.33;52.86;100265.77;3650403;79;99030;-86
2022/07/31 20:12:03;;;;;;;7.83;3.93;;;;;;;21.23;53.76;100256.33;3654349;79;98773;-85
2022/07/31 20:17:04;;;;;;;6.28;2.87;;;;;;;21.17;54.50;100269.34;3659857;79;98768;-84
2022/07/31 20:22:05;;;;;;;6.10;2.40;;;;;;;21.12;54.96;100269.91;3648986;79;98774;-86
2022/07/31 20:27:09;;;;;;;4.83;2.33;;;;;;;21.02;55.38;100271.84;3662301;79;99285;-84
2022/07/31 20:32:10;;;;;;;6.58;2.47;;;;;;;20.91;55.80;100269.23;3653113;79;98911;-85
2022/07/31 20:37:11;;;;;;;4.80;1.90;;;;;;;20.78;56.25;100262.25;3659884;79;98969;-84
2022/07/31 20:42:12;;;;;;;6.73;3.00;;;;;;;20.68;56.65;100266.77;3661921;79;99119;-86
2022/07/31 20:47:14;;;;;;;7.10;2.30;;;;;;;20.55;57.23;100258.39;3649984;79;98910;-86
2022/07/31 20:52:15;;;;;;;6.43;2.37;;;;;;;20.43;57.62;100255.62;3649635;79;98930;-84
2022/07/31 20:57:17;;;;;;;4.90;2.47;;;;;;;20.39;58.43;100242.36;3649066;79;98805;-86
2022/07/31 21:02:18;;;;;;;4.57;2.20;;;;;;;20.33;58.85;100243.52;3599092;80;98959;-86
2022/07/31 21:07:18;;;;;;;8.63;2.80;;;;;;;20.30;59.12;100245.03;3606553;80;98642;-87
2022/07/31 21:12:20;;;;;;;9.73;3.10;;;;;;;20.23;59.60;100244.66;3584642;80;99020;-86
2022/07/31 21:17:21;;;;;;;4.07;2.13;;;;;;;20.19;59.85;100243.19;3599629;80;99256;-87
2022/07/31 21:22:22;;;;;;;8.05;2.50;;;;;;;20.11;60.47;100232.84;3568693;81;98888;-87
2022/07/31 21:27:24;;;;;;;8.37;2.20;;;;;;;20.09;60.82;100233.11;3598436;80;98743;-87
2022/07/31 21:32:26;;;;;;;6.50;2.93;;;;;;;20.06;60.96;100236.78;3583206;81;98569;-87
2022/07/31 21:37:28;;;;;;;6.87;2.47;;;;;;;19.99;61.20;100236.38;3595484;80;98639;-87
2022/07/31 21:42:29;;;;;;;5.27;2.57;;;;;;;19.96;61.65;100232.30;3587155;81;98715;-87
2022/07/31 21:47:34;;;;;;;6.53;2.90;;;;;;;19.90;61.93;100239.67;3567803;81;98809;-86
2022/07/31 21:52:35;;;;;;;5.65;2.30;;;;;;;19.83;61.95;100235.70;3569203;81;98789;-87
2022/07/31 21:57:36;;;;;;;5.10;2.30;;;;;;;19.71;62.64;100244.80;3541098;81;98906;-89
2022/07/31 22:02:37;;;;;;;7.43;2.70;;;;;;;19.61;62.84;100239.70;3538189;81;98558;-87
2022/07/31 22:07:48;;;;;;;4.73;2.00;;;;;;;19.61;63.51;100247.31;3549667;81;98409;-87
2022/07/31 22:12:49;;;;;;;4.58;2.15;;;;;;;19.60;63.94;100242.93;3584393;81;98602;-88
2022/07/31 22:17:50;;;;;;;3.97;2.27;;;;;;;19.57;64.10;100238.24;3592688;81;98866;-87
2022/07/31 22:22:51;;;;;;;6.57;2.37;;;;;;;19.53;64.39;100234.77;3591479;81;98830;-90
2022/07/31 22:27:57;;;;;;;6.07;3.13;;;;;;;19.49;64.53;100231.28;3598354;81;98731;-85
2022/07/31 22:32:59;;;;;;;4.80;2.22;;;;;;;19.42;64.88;100223.11;3589350;81;98856;-85
2022/07/31 22:38:00;;;;;;;5.78;2.42;;;;;;;19.39;65.19;100223.38;3605711;81;25950;-85
2022/07/31 22:43:01;;;;;;;5.83;2.80;;;;;;;19.35;65.50;100222.69;3589135;80;99057;-85
2022/07/31 22:48:03;;;;;;;6.27;2.60;;;;;;;19.32;65.73;100220.00;3597503;80;98083;-85
2022/07/31 22:53:04;;;;;;;4.72;2.52;;;;;;;19.27;65.66;100223.33;3513166;82;98827;-86
2022/07/31 22:58:09;;;;;;;5.37;2.60;;;;;;;19.16;66.08;100214.44;3541333;81;98837;-86
2022/07/31 23:03:08;;;;;;;6.73;3.03;;;;;;;19.12;66.46;100215.93;3543952;81;98829;-85
2022/07/31 23:08:09;;;;;;;6.80;2.90;;;;;;;19.13;66.73;100213.94;3602545;80;26352;-85
2022/07/31 23:13:10;;;;;;;5.70;2.72;;;;;;;19.10;66.91;100203.64;3499335;82;98604;-86
2022/07/31 23:18:11;;;;;;;6.40;2.50;;;;;;;19.02;67.07;100203.05;3660922;79;98634;-86
2022/07/31 23:23:12;;;;;;;6.63;2.97;;;;;;;19.01;67.62;100202.11;3659437;79;98814;-86